createdAt,value
2023-02-15T00:00:14.991Z,94.37
2023-02-15T00:02:42.701Z,94.63
2023-02-15T00:05:11.108Z,94.42
2023-02-15T00:07:38.792Z,94.65
2023-02-15T00:10:07.419Z,94.71
2023-02-15T00:12:35.449Z,94.53
2023-02-15T00:15:03.291Z,94.43
2023-02-15T00:17:31.481Z,94.50
2023-02-15T00:19:59.194Z,94.40
2023-02-15T00:22:28.270Z,94.51
2023-02-15T00:24:55.930Z,94.52
2023-02-15T00:27:23.669Z,94.52
2023-02-15T00:29:51.405Z,94.45
2023-02-15T00:32:19.165Z,94.65
2023-02-15T00:34:46.864Z,94.77
2023-02-15T00:37:14.612Z,94.62
2023-02-15T00:39:42.379Z,94.67
2023-02-15T00:42:10.275Z,94.70
2023-02-15T00:44:37.972Z,94.91
2023-02-15T00:47:05.632Z,94.61
2023-02-15T00:49:33.403Z,94.68
2023-02-15T00:52:01.117Z,94.55
2023-02-15T00:54:28.875Z,94.48
2023-02-15T00:56:56.514Z,94.59
2023-02-15T00:59:24.287Z,94.83
2023-02-15T01:01:52.032Z,94.70
2023-02-15T01:04:19.882Z,94.79
2023-02-15T01:06:47.544Z,94.53
2023-02-15T01:09:15.703Z,94.45
2023-02-15T01:11:43.382Z,94.58
2023-02-15T01:14:11.106Z,94.48
2023-02-15T01:16:38.742Z,94.64
2023-02-15T01:19:06.454Z,94.43
2023-02-15T01:21:36.409Z,94.60
2023-02-15T01:24:04.272Z,94.57
2023-02-15T01:26:32.672Z,94.79
2023-02-15T01:29:00.467Z,94.95
2023-02-15T01:31:28.298Z,95.01
2023-02-15T01:33:56.014Z,95.45
2023-02-15T01:36:23.809Z,95.42
2023-02-15T01:38:51.632Z,95.56
2023-02-15T01:41:22.343Z,95.70
2023-02-15T01:43:56.585Z,95.70
2023-02-15T01:46:40.433Z,95.96
2023-02-15T01:49:18.914Z,95.49
2023-02-15T01:51:49.773Z,95.60
2023-02-15T01:54:29.648Z,95.68
2023-02-15T01:57:05.541Z,95.65
2023-02-15T01:59:36.014Z,95.12
2023-02-15T02:02:06.225Z,95.29
2023-02-15T02:04:42.155Z,95.08
2023-02-15T02:07:11.903Z,95.49
2023-02-15T02:09:39.643Z,95.45
2023-02-15T02:12:08.711Z,94.98
2023-02-15T02:14:37.107Z,94.75
2023-02-15T02:17:17.275Z,94.97
2023-02-15T02:20:19.042Z,95.20
2023-02-15T02:23:08.643Z,95.16
2023-02-15T02:25:45.127Z,95.29
2023-02-15T02:28:40.788Z,94.68
2023-02-15T02:31:11.625Z,94.75
2023-02-15T02:33:56.206Z,94.55
2023-02-15T02:36:40.321Z,94.43
2023-02-15T02:39:36.530Z,94.62
2023-02-15T02:42:12.761Z,94.58
2023-02-15T02:44:45.728Z,94.49
2023-02-15T02:47:26.289Z,94.46
2023-02-15T02:50:07.482Z,94.95
2023-02-15T02:52:55.814Z,94.87
2023-02-15T02:55:26.220Z,94.87
2023-02-15T02:58:03.193Z,94.71
2023-02-15T03:00:37.872Z,94.73
2023-02-15T03:03:11.866Z,95.07
2023-02-15T03:05:43.848Z,95.40
2023-02-15T03:08:12.984Z,95.34
2023-02-15T03:10:42.660Z,95.64
2023-02-15T03:13:11.038Z,95.55
2023-02-15T03:16:02.896Z,95.79
2023-02-15T03:18:37.322Z,95.52
2023-02-15T03:21:07.537Z,95.80
2023-02-15T03:23:38.308Z,95.87
2023-02-15T03:26:09.849Z,95.84
2023-02-15T03:28:48.022Z,95.64
2023-02-15T03:31:18.981Z,95.69
2023-02-15T03:33:57.891Z,95.40
2023-02-15T03:36:48.440Z,95.47
2023-02-15T03:39:35.693Z,95.41
2023-02-15T03:42:24.734Z,95.27
2023-02-15T03:45:01.023Z,95.33
2023-02-15T03:47:36.526Z,95.57
2023-02-15T03:50:27.078Z,95.54
2023-02-15T03:52:57.019Z,95.46
2023-02-15T03:55:24.814Z,95.52
2023-02-15T03:58:11.317Z,95.76
2023-02-15T04:01:03.727Z,95.84
2023-02-15T04:03:39.029Z,95.86
2023-02-15T04:06:06.984Z,95.74
2023-02-15T04:08:53.333Z,95.81
2023-02-15T04:11:20.983Z,95.95
2023-02-15T04:13:48.699Z,95.72
2023-02-15T04:16:16.451Z,95.64
2023-02-15T04:19:03.824Z,96.08
2023-02-15T04:21:51.204Z,95.62
2023-02-15T04:24:38.325Z,96.11
2023-02-15T04:27:07.880Z,96.54
2023-02-15T04:29:35.616Z,96.05
2023-02-15T04:32:04.200Z,96.14
2023-02-15T04:34:31.996Z,96.03
2023-02-15T04:36:59.690Z,95.80
2023-02-15T04:39:27.336Z,96.29
2023-02-15T04:41:55.134Z,95.78
2023-02-15T04:44:22.865Z,95.83
2023-02-15T04:46:50.501Z,95.90
2023-02-15T04:49:18.296Z,96.16
2023-02-15T04:51:45.907Z,96.21
2023-02-15T04:54:13.644Z,96.21
2023-02-15T04:56:41.520Z,96.11
2023-02-15T04:59:11.481Z,96.28
2023-02-15T05:01:39.501Z,95.99
2023-02-15T05:04:07.276Z,95.57
2023-02-15T05:06:35.396Z,96.00
2023-02-15T05:09:03.665Z,95.84
2023-02-15T05:11:31.364Z,95.58
2023-02-15T05:13:59.179Z,96.02
2023-02-15T05:16:27.685Z,96.23
2023-02-15T05:18:55.491Z,96.13
2023-02-15T05:21:23.265Z,96.06
2023-02-15T05:23:50.963Z,96.36
2023-02-15T05:26:41.048Z,95.50
2023-02-15T05:29:09.580Z,95.80
2023-02-15T05:31:38.005Z,95.56
2023-02-15T05:34:05.789Z,95.43
2023-02-15T05:36:33.528Z,96.10
2023-02-15T05:39:01.328Z,95.85
2023-02-15T05:41:29.002Z,95.89
2023-02-15T05:43:58.707Z,95.76
2023-02-15T05:46:26.436Z,95.93
2023-02-15T05:48:54.183Z,95.56
2023-02-15T05:51:21.809Z,96.20
2023-02-15T05:53:49.534Z,95.71
2023-02-15T05:56:17.416Z,95.73
2023-02-15T05:58:45.225Z,95.84
2023-02-15T06:01:14.982Z,95.67
2023-02-15T06:03:43.323Z,95.78
2023-02-15T06:06:11.262Z,95.80
2023-02-15T06:08:39.873Z,95.44
2023-02-15T06:11:08.184Z,95.61
2023-02-15T06:13:38.702Z,95.52
2023-02-15T06:16:07.765Z,95.33
2023-02-15T06:18:35.978Z,95.39
2023-02-15T06:21:03.947Z,95.36
2023-02-15T06:23:31.712Z,95.82
2023-02-15T06:25:59.576Z,95.53
2023-02-15T06:28:27.716Z,95.63
2023-02-15T06:30:55.674Z,95.61
2023-02-15T06:33:24.045Z,95.82
2023-02-15T06:35:51.717Z,95.77
2023-02-15T06:38:19.717Z,95.71
2023-02-15T06:40:47.628Z,95.59
2023-02-15T06:43:15.600Z,95.69
2023-02-15T06:45:44.286Z,95.89
2023-02-15T06:48:13.306Z,95.75
2023-02-15T06:50:40.997Z,95.72
2023-02-15T06:53:08.715Z,95.94
2023-02-15T06:55:36.416Z,95.68
2023-02-15T06:58:04.044Z,96.06
2023-02-15T07:00:31.755Z,95.88
2023-02-15T07:03:00.436Z,95.95
2023-02-15T07:05:32.869Z,95.74
2023-02-15T07:08:01.422Z,95.82
2023-02-15T07:10:30.119Z,95.81
2023-02-15T07:12:58.000Z,95.89
2023-02-15T07:15:26.494Z,95.89
2023-02-15T07:17:54.264Z,95.67
2023-02-15T07:20:24.303Z,95.52
2023-02-15T07:22:52.718Z,95.24
2023-02-15T07:25:20.624Z,95.41
2023-02-15T07:27:48.450Z,95.23
2023-02-15T07:30:19.252Z,94.68
2023-02-15T07:33:05.955Z,94.48
2023-02-15T07:35:34.653Z,94.39
2023-02-15T07:38:03.031Z,95.18
2023-02-15T07:40:30.914Z,95.69
2023-02-15T07:43:01.056Z,96.52
2023-02-15T07:45:29.120Z,95.64
2023-02-15T07:47:56.823Z,95.14
2023-02-15T07:50:25.193Z,94.67
2023-02-15T07:52:52.871Z,94.67
2023-02-15T07:55:21.107Z,94.38
2023-02-15T07:57:51.134Z,94.64
2023-02-15T08:00:22.268Z,94.48
2023-02-15T08:03:11.414Z,94.74
2023-02-15T08:05:39.264Z,94.64
2023-02-15T08:08:07.659Z,94.34
2023-02-15T08:10:54.220Z,94.23
2023-02-15T08:13:22.228Z,94.31
2023-02-15T08:15:51.325Z,94.55
2023-02-15T08:18:19.156Z,94.63
2023-02-15T08:20:51.941Z,94.60
2023-02-15T08:23:19.628Z,94.42
2023-02-15T08:25:47.344Z,94.63
2023-02-15T08:28:15.020Z,94.36
2023-02-15T08:30:42.709Z,94.41
2023-02-15T08:33:11.977Z,94.62
2023-02-15T08:35:39.630Z,94.37
2023-02-15T08:38:07.274Z,94.30
2023-02-15T08:40:34.995Z,93.92
2023-02-15T08:43:02.648Z,94.21
2023-02-15T08:45:30.395Z,94.05
2023-02-15T08:47:58.038Z,94.22
2023-02-15T08:50:25.675Z,94.17
2023-02-15T08:52:53.375Z,93.80
2023-02-15T08:55:21.212Z,94.15
2023-02-15T08:57:50.191Z,94.06
2023-02-15T09:00:19.233Z,93.77
2023-02-15T09:02:46.956Z,93.91
2023-02-15T09:05:14.969Z,94.07
2023-02-15T09:07:42.948Z,93.70
2023-02-15T09:10:11.931Z,94.03
2023-02-15T09:12:39.702Z,93.61
2023-02-15T09:15:07.941Z,93.57
2023-02-15T09:17:35.635Z,93.67
2023-02-15T09:20:03.329Z,93.48
2023-02-15T09:22:33.321Z,93.40
2023-02-15T09:25:01.011Z,93.28
2023-02-15T09:27:28.793Z,93.35
2023-02-15T09:29:56.550Z,92.99
2023-02-15T09:32:24.165Z,93.30
2023-02-15T09:34:51.844Z,93.10
2023-02-15T09:37:19.673Z,93.07
2023-02-15T09:39:49.082Z,92.84
2023-02-15T09:42:28.783Z,93.02
2023-02-15T09:45:24.423Z,92.81
2023-02-15T09:48:36.823Z,92.77
2023-02-15T09:51:28.428Z,92.87
2023-02-15T09:54:33.354Z,92.73
2023-02-15T09:57:10.610Z,91.99
2023-02-15T09:59:58.474Z,92.60
2023-02-15T10:02:38.063Z,92.55
2023-02-15T10:05:27.816Z,92.81
2023-02-15T10:08:32.763Z,92.54
2023-02-15T10:11:26.447Z,92.33
2023-02-15T10:14:09.305Z,92.74
2023-02-15T10:17:01.899Z,92.74
2023-02-15T10:19:59.876Z,91.76
2023-02-15T10:23:20.847Z,92.01
2023-02-15T10:26:24.849Z,91.93
2023-02-15T10:29:11.542Z,91.65
2023-02-15T10:31:51.475Z,91.20
2023-02-15T10:34:22.272Z,91.57
2023-02-15T10:37:28.738Z,91.39
2023-02-15T10:40:17.214Z,90.66
2023-02-15T10:43:31.018Z,90.79
2023-02-15T10:46:14.210Z,89.51
2023-02-15T10:48:50.997Z,90.47
2023-02-15T10:51:45.560Z,90.36
2023-02-15T10:54:52.149Z,90.20
2023-02-15T10:57:38.441Z,88.76
2023-02-15T11:00:21.569Z,89.59
2023-02-15T11:03:29.046Z,88.91
2023-02-15T11:06:16.416Z,88.82
2023-02-15T11:09:01.874Z,89.02
2023-02-15T11:11:42.627Z,88.21
2023-02-15T11:14:24.124Z,89.09
2023-02-15T11:16:55.943Z,89.08
2023-02-15T11:19:34.164Z,87.89
2023-02-15T11:22:05.990Z,88.12
2023-02-15T11:24:41.114Z,88.52
2023-02-15T11:27:14.565Z,86.87
2023-02-15T11:29:54.374Z,87.30
2023-02-15T11:32:39.528Z,87.43
2023-02-15T11:35:26.426Z,87.01
2023-02-15T11:38:03.179Z,86.51
2023-02-15T11:40:34.252Z,87.72
2023-02-15T11:43:40.360Z,87.54
2023-02-15T11:46:12.333Z,86.90
2023-02-15T11:48:41.147Z,86.83
2023-02-15T11:51:15.893Z,86.60
2023-02-15T11:53:45.512Z,86.37
2023-02-15T11:56:25.844Z,86.28
2023-02-15T11:59:12.898Z,85.84
2023-02-15T12:01:45.868Z,86.15
2023-02-15T12:04:24.579Z,86.27
2023-02-15T12:07:03.731Z,86.29
2023-02-15T12:09:53.332Z,85.99
2023-02-15T12:12:31.518Z,85.31
2023-02-15T12:15:02.052Z,85.53
2023-02-15T12:17:36.888Z,85.56
2023-02-15T12:20:09.423Z,85.27
2023-02-15T12:22:39.423Z,85.34
2023-02-15T12:25:24.822Z,85.20
2023-02-15T12:27:53.003Z,84.73
2023-02-15T12:30:39.966Z,85.03
2023-02-15T12:33:48.082Z,84.13
2023-02-15T12:36:32.592Z,83.99
2023-02-15T12:39:15.458Z,84.01
2023-02-15T12:42:07.698Z,83.53
2023-02-15T12:44:38.030Z,83.53
2023-02-15T12:47:07.044Z,83.43
2023-02-15T12:49:36.940Z,83.18
2023-02-15T12:52:10.066Z,82.44
2023-02-15T12:54:43.603Z,82.12
2023-02-15T12:57:28.077Z,82.43
2023-02-15T13:00:00.414Z,81.54
2023-02-15T13:02:43.106Z,82.59
2023-02-15T13:05:42.110Z,82.30
2023-02-15T13:08:21.950Z,82.46
2023-02-15T13:11:09.009Z,82.50
2023-02-15T13:13:57.339Z,82.51
2023-02-15T13:16:46.430Z,82.65
2023-02-15T13:19:16.746Z,82.21
2023-02-15T13:21:49.943Z,81.62
2023-02-15T13:24:28.793Z,82.47
2023-02-15T13:27:13.164Z,82.01
2023-02-15T13:29:47.031Z,82.07
2023-02-15T13:32:24.018Z,82.31
2023-02-15T13:34:51.914Z,81.83
2023-02-15T13:37:28.677Z,82.27
2023-02-15T13:40:24.175Z,81.89
2023-02-15T13:42:51.751Z,81.21
2023-02-15T13:45:35.849Z,82.02
2023-02-15T13:48:12.999Z,82.17
2023-02-15T13:50:47.688Z,82.29
2023-02-15T13:53:31.016Z,81.85
2023-02-15T13:56:33.325Z,81.97
2023-02-15T13:59:13.146Z,82.20
2023-02-15T14:01:50.490Z,82.37
2023-02-15T14:04:44.264Z,82.35
2023-02-15T14:07:17.964Z,82.36
2023-02-15T14:10:18.685Z,82.37
2023-02-15T14:12:54.512Z,82.43
2023-02-15T14:15:48.951Z,82.41
2023-02-15T14:18:54.524Z,82.26
2023-02-15T14:21:41.962Z,82.49
2023-02-15T14:24:39.420Z,82.34
2023-02-15T14:27:26.727Z,82.70
2023-02-15T14:30:15.194Z,82.69
2023-02-15T14:33:32.807Z,82.82
2023-02-15T14:36:04.973Z,82.84
2023-02-15T14:38:56.030Z,83.07
2023-02-15T14:41:34.059Z,83.13
2023-02-15T14:44:19.014Z,83.14
2023-02-15T14:47:01.271Z,83.21
2023-02-15T14:49:35.167Z,83.63
2023-02-15T14:52:09.136Z,84.13
2023-02-15T14:54:36.777Z,84.57
2023-02-15T14:57:04.389Z,85.39
2023-02-15T15:00:00.351Z,85.62
2023-02-15T15:02:51.523Z,85.95
2023-02-15T15:05:37.616Z,86.62
2023-02-15T15:08:07.389Z,87.23
2023-02-15T15:10:42.706Z,88.38
2023-02-15T15:13:40.330Z,88.55
2023-02-15T15:16:30.013Z,89.31
2023-02-15T15:18:58.617Z,89.51
2023-02-15T15:21:51.017Z,89.54
2023-02-15T15:24:40.320Z,89.77
2023-02-15T15:27:45.332Z,89.92
2023-02-15T15:30:15.758Z,89.85
2023-02-15T15:33:08.186Z,89.74
2023-02-15T15:35:58.673Z,90.17
2023-02-15T15:38:55.037Z,90.06
2023-02-15T15:41:45.434Z,89.96
2023-02-15T15:44:37.684Z,90.26
2023-02-15T15:47:33.217Z,90.59
2023-02-15T15:50:01.608Z,90.32
2023-02-15T15:52:31.063Z,90.34
2023-02-15T15:55:07.242Z,90.82
2023-02-15T15:57:40.722Z,91.27
2023-02-15T16:00:47.170Z,91.68
2023-02-15T16:03:24.104Z,91.79
2023-02-15T16:05:58.392Z,91.52
2023-02-15T16:08:33.883Z,91.59
2023-02-15T16:11:10.160Z,91.94
2023-02-15T16:13:37.922Z,91.71
2023-02-15T16:16:06.263Z,91.84
2023-02-15T16:18:35.227Z,91.85
2023-02-15T16:21:04.190Z,91.93
2023-02-15T16:23:37.611Z,92.05
2023-02-15T16:26:17.716Z,91.79
2023-02-15T16:28:53.849Z,92.13
2023-02-15T16:31:24.507Z,92.33
2023-02-15T16:33:55.933Z,92.23
2023-02-15T16:36:26.671Z,92.44
2023-02-15T16:38:54.282Z,92.64
2023-02-15T16:41:29.247Z,92.58
2023-02-15T16:44:01.851Z,92.80
2023-02-15T16:46:34.981Z,92.50
2023-02-15T16:49:08.958Z,92.73
2023-02-15T16:51:38.074Z,93.12
2023-02-15T16:54:17.174Z,93.34
2023-02-15T16:56:47.991Z,93.12
2023-02-15T16:59:39.645Z,93.03
2023-02-15T17:02:30.616Z,93.87
2023-02-15T17:05:08.351Z,93.99
2023-02-15T17:07:41.868Z,93.74
2023-02-15T17:10:31.046Z,93.77
2023-02-15T17:13:04.768Z,93.86
2023-02-15T17:15:41.756Z,93.85
2023-02-15T17:18:25.151Z,93.70
2023-02-15T17:20:55.806Z,93.84
2023-02-15T17:23:50.902Z,93.77
2023-02-15T17:26:24.800Z,94.19
2023-02-15T17:28:56.149Z,93.95
2023-02-15T17:31:30.580Z,93.62
2023-02-15T17:34:00.440Z,93.69
2023-02-15T17:36:33.135Z,93.71
2023-02-15T17:39:00.837Z,93.54
2023-02-15T17:41:30.426Z,93.77
2023-02-15T17:43:58.726Z,93.67
2023-02-15T17:46:27.545Z,93.74
2023-02-15T17:48:58.034Z,93.37
2023-02-15T17:51:25.863Z,93.09
2023-02-15T17:54:12.334Z,93.45
2023-02-15T17:56:40.837Z,93.58
2023-02-15T17:59:08.806Z,93.99
2023-02-15T18:01:58.265Z,94.02
2023-02-15T18:04:44.750Z,94.23
2023-02-15T18:07:32.992Z,94.28
2023-02-15T18:10:19.175Z,94.45
2023-02-15T18:12:46.808Z,94.33
2023-02-15T18:15:14.759Z,93.98
2023-02-15T18:17:48.892Z,94.04
2023-02-15T18:20:19.412Z,94.76
2023-02-15T18:22:50.314Z,94.50
2023-02-15T18:25:20.049Z,94.81
2023-02-15T18:27:48.216Z,94.89
2023-02-15T18:30:18.661Z,95.59
2023-02-15T18:32:48.108Z,95.56
2023-02-15T18:35:21.149Z,95.45
2023-02-15T18:37:50.548Z,95.31
2023-02-15T18:40:20.661Z,95.20
2023-02-15T18:42:50.014Z,95.38
2023-02-15T18:45:19.444Z,95.26
2023-02-15T18:47:48.186Z,95.09
2023-02-15T18:50:18.740Z,95.25
2023-02-15T18:52:48.589Z,95.04
2023-02-15T18:55:20.339Z,94.92
2023-02-15T18:57:49.692Z,95.30
2023-02-15T19:00:18.475Z,95.26
2023-02-15T19:02:46.560Z,94.91
2023-02-15T19:05:15.136Z,94.85
2023-02-15T19:07:44.886Z,95.14
2023-02-15T19:10:18.254Z,95.01
2023-02-15T19:12:46.868Z,94.93
2023-02-15T19:15:29.395Z,95.43
2023-02-15T19:17:57.565Z,95.25
2023-02-15T19:20:34.086Z,95.85
2023-02-15T19:23:02.990Z,95.46
2023-02-15T19:25:33.282Z,95.14
2023-02-15T19:28:01.877Z,94.95
2023-02-15T19:30:32.572Z,94.83
2023-02-15T19:33:01.031Z,95.05
2023-02-15T19:35:32.913Z,95.35
2023-02-15T19:38:03.391Z,95.08
2023-02-15T19:40:34.092Z,95.30
2023-02-15T19:43:02.213Z,95.33
2023-02-15T19:45:32.950Z,95.87
2023-02-15T19:48:03.805Z,95.84
2023-02-15T19:50:34.459Z,96.02
2023-02-15T19:53:03.857Z,96.14
2023-02-15T19:55:35.923Z,96.20
2023-02-15T19:58:04.378Z,95.91
2023-02-15T20:00:34.455Z,95.54
2023-02-15T20:03:02.558Z,95.89
2023-02-15T20:05:32.167Z,96.18
2023-02-15T20:08:00.157Z,95.52
2023-02-15T20:10:31.027Z,95.51
2023-02-15T20:12:59.011Z,96.22
2023-02-15T20:15:35.945Z,96.18
2023-02-15T20:18:05.213Z,96.43
2023-02-15T20:20:38.589Z,95.47
2023-02-15T20:23:08.121Z,95.78
2023-02-15T20:25:35.822Z,95.58
2023-02-15T20:28:03.622Z,96.16
2023-02-15T20:30:33.435Z,95.62
2023-02-15T20:33:01.373Z,95.84
2023-02-15T20:35:29.987Z,96.00
2023-02-15T20:38:01.560Z,95.76
2023-02-15T20:40:32.851Z,95.61
2023-02-15T20:43:01.209Z,96.42
2023-02-15T20:45:32.433Z,96.18
2023-02-15T20:48:02.589Z,95.67
2023-02-15T20:50:33.575Z,96.03
2023-02-15T20:53:03.865Z,95.68
2023-02-15T20:55:33.050Z,96.60
2023-02-15T20:58:00.711Z,95.73
2023-02-15T21:00:30.736Z,95.91
2023-02-15T21:03:00.802Z,96.13
2023-02-15T21:05:34.479Z,96.25
2023-02-15T21:08:15.320Z,96.66
2023-02-15T21:10:46.507Z,97.01
2023-02-15T21:13:25.215Z,96.84
2023-02-15T21:15:54.667Z,96.67
2023-02-15T21:18:28.068Z,96.28
2023-02-15T21:20:59.612Z,96.62
2023-02-15T21:23:34.803Z,95.98
2023-02-15T21:26:03.185Z,95.76
2023-02-15T21:28:31.464Z,95.90
2023-02-15T21:31:00.705Z,95.55
2023-02-15T21:33:28.934Z,96.10
2023-02-15T21:35:58.826Z,96.03
2023-02-15T21:38:29.400Z,96.59
2023-02-15T21:41:17.169Z,96.93
2023-02-15T21:44:03.330Z,96.73
2023-02-15T21:46:43.198Z,97.47
2023-02-15T21:49:11.895Z,97.00
2023-02-15T21:51:57.986Z,97.66
2023-02-15T21:54:25.686Z,98.14
2023-02-15T21:56:55.116Z,98.13
2023-02-15T21:59:22.818Z,98.34
2023-02-15T22:01:52.134Z,98.41
2023-02-15T22:04:29.194Z,99.09
2023-02-15T22:06:57.758Z,98.64
2023-02-15T22:09:28.130Z,98.74
2023-02-15T22:11:56.286Z,98.67
2023-02-15T22:14:38.255Z,98.85
2023-02-15T22:17:14.630Z,98.75
2023-02-15T22:19:42.779Z,98.16
2023-02-15T22:22:10.477Z,98.55
2023-02-15T22:24:38.313Z,98.56
2023-02-15T22:27:07.284Z,98.10
2023-02-15T22:29:35.326Z,97.83
2023-02-15T22:32:03.218Z,99.60
2023-02-15T22:34:33.459Z,99.86
2023-02-15T22:37:01.168Z,99.86
2023-02-15T22:39:28.933Z,100.00
2023-02-15T22:41:56.695Z,99.74
2023-02-15T22:44:28.815Z,99.54
2023-02-15T22:46:56.969Z,99.59
2023-02-15T22:49:24.706Z,99.33
2023-02-15T22:51:53.138Z,99.64
2023-02-15T22:54:21.295Z,99.80
2023-02-15T22:56:54.376Z,99.35
2023-02-15T22:59:25.731Z,100.00
2023-02-15T23:01:54.294Z,99.75
2023-02-15T23:04:26.068Z,99.54
2023-02-15T23:06:54.530Z,99.65
2023-02-15T23:09:23.028Z,99.15
2023-02-15T23:11:52.872Z,99.75
2023-02-15T23:14:23.555Z,99.05
2023-02-15T23:16:51.326Z,99.04
2023-02-15T23:19:19.043Z,99.57
2023-02-15T23:21:47.388Z,99.46
2023-02-15T23:24:22.393Z,99.72
2023-02-15T23:26:51.051Z,99.55
2023-02-15T23:29:22.203Z,99.45
2023-02-15T23:31:54.208Z,99.05
2023-02-15T23:34:27.456Z,98.58
2023-02-15T23:36:55.228Z,99.17
2023-02-15T23:39:44.057Z,98.43
2023-02-15T23:42:29.994Z,98.33
2023-02-15T23:44:58.033Z,97.87
2023-02-15T23:47:49.198Z,98.31
2023-02-15T23:50:22.619Z,98.71
2023-02-15T23:52:54.906Z,98.76
2023-02-15T23:55:23.558Z,98.28
2023-02-15T23:57:51.435Z,98.86
